Time;durP1;ratioP1;P1;durP2;ratioP2;P2;SDS_P1;SDS_P2;PMS_P1;PMS_P2;Temp;Humidity;BMP_temperature;BMP_pressure;BME280_temperature;BME280_humidity;BME280_pressure;Samples;Min_cycle;Max_cycle;Signal;HPM_P1;HPM_P2
2021/08/27 00:01:54;;;;;;;6.75;1.70;;;;;;;11.56;100.00;100274.03;5052300;28;20029;-80
2021/08/27 00:04:20;;;;;;;6.60;1.55;;;;;;;11.58;100.00;100272.25;5056919;28;20392;-80
2021/08/27 00:06:45;;;;;;;6.43;1.30;;;;;;;11.58;100.00;100274.00;5057128;28;20037;-80
2021/08/27 00:09:10;;;;;;;6.25;1.20;;;;;;;11.53;100.00;100266.31;5055850;28;20120;-81
2021/08/27 00:11:36;;;;;;;5.20;1.40;;;;;;;11.56;100.00;100271.44;5055559;28;20029;-81
2021/08/27 00:14:02;;;;;;;7.70;1.80;;;;;;;11.56;100.00;100270.59;5057512;28;20057;-81
2021/08/27 00:16:27;;;;;;;4.32;1.40;;;;;;;11.56;100.00;100267.97;5056968;28;20021;-80
2021/08/27 00:18:52;;;;;;;4.95;1.70;;;;;;;11.55;100.00;100264.53;5056802;28;20020;-81
2021/08/27 00:21:17;;;;;;;6.57;1.88;;;;;;;11.53;100.00;100266.31;5055399;28;20519;-81
2021/08/27 00:23:43;;;;;;;7.20;1.63;;;;;;;11.48;100.00;100265.56;5056818;28;20024;-81
2021/08/27 00:26:08;;;;;;;8.80;1.98;;;;;;;11.48;100.00;100265.56;5056826;28;20036;-81
2021/08/27 00:28:33;;;;;;;9.15;1.83;;;;;;;11.50;100.00;100267.25;5056716;28;20024;-81
2021/08/27 00:30:59;;;;;;;7.03;1.77;;;;;;;11.48;100.00;100262.97;5056877;28;20024;-81
2021/08/27 00:33:25;;;;;;;5.00;1.65;;;;;;;11.43;100.00;100257.91;5055739;28;20025;-81
2021/08/27 00:35:50;;;;;;;5.38;1.30;;;;;;;11.44;100.00;100271.75;5057049;28;20024;-81
2021/08/27 00:38:16;;;;;;;9.63;2.55;;;;;;;11.42;100.00;100269.22;5055738;28;20032;-81
2021/08/27 00:40:42;;;;;;;5.80;1.45;;;;;;;11.38;100.00;100264.97;5056837;28;20029;-81
2021/08/27 00:43:08;;;;;;;7.75;1.60;;;;;;;11.36;100.00;100269.38;5056842;28;20059;-81
2021/08/27 00:45:33;;;;;;;7.80;1.75;;;;;;;11.38;100.00;100264.97;5055278;28;20020;-81
2021/08/27 00:48:00;;;;;;;5.68;1.50;;;;;;;11.37;100.00;100260.69;5055305;28;20021;-81
2021/08/27 00:50:26;;;;;;;6.82;1.58;;;;;;;11.38;100.00;100253.75;5056429;28;20059;-81
2021/08/27 00:52:51;;;;;;;6.07;1.60;;;;;;;11.35;100.00;100257.25;5056583;28;20025;-81
2021/08/27 00:55:17;;;;;;;5.45;1.75;;;;;;;11.33;100.00;100263.38;5056553;28;20112;-81
2021/08/27 00:57:42;;;;;;;6.85;1.90;;;;;;;11.36;100.00;100260.69;5056893;28;20487;-81
2021/08/27 01:00:08;;;;;;;9.00;2.00;;;;;;;11.35;100.00;100259.00;5079119;22;20384;-85
2021/08/27 01:02:34;;;;;;;6.57;1.80;;;;;;;11.36;100.00;100247.72;5054409;28;20043;-84
2021/08/27 01:04:59;;;;;;;6.55;1.42;;;;;;;11.36;100.00;100251.19;5055250;28;20021;-84
2021/08/27 01:07:34;;;;;;;6.65;1.63;;;;;;;11.38;100.00;100251.13;5054196;28;20029;-84
2021/08/27 01:10:36;;;;;;;5.47;1.50;;;;;;;11.37;100.00;100252.03;5055491;28;20021;-85
2021/08/27 01:13:27;;;;;;;5.38;1.25;;;;;;;11.37;100.00;100245.09;5055111;28;20048;-85
2021/08/27 01:16:01;;;;;;;6.55;1.67;;;;;;;11.35;100.00;100246.03;5053335;28;20438;-85
2021/08/27 01:18:34;;;;;;;5.70;1.65;;;;;;;11.35;100.00;100240.84;5053773;28;20048;-85
2021/08/27 01:21:24;;;;;;;5.15;1.40;;;;;;;11.35;100.00;100239.09;5053763;28;20025;-85
2021/08/27 01:23:53;;;;;;;6.05;1.30;;;;;;;11.35;100.00;100233.03;5053744;28;20025;-85
2021/08/27 01:26:24;;;;;;;7.43;1.42;;;;;;;11.35;100.00;100236.50;5054635;28;20496;-85
2021/08/27 01:28:51;;;;;;;4.78;1.40;;;;;;;11.33;100.00;100227.91;5053651;28;20115;-85
2021/08/27 01:31:25;;;;;;;6.28;1.50;;;;;;;11.32;100.00;100223.59;5054578;28;20029;-85
2021/08/27 01:34:27;;;;;;;5.40;1.70;;;;;;;11.35;100.00;100220.06;5055130;28;20039;-85
2021/08/27 01:36:54;;;;;;;7.88;1.40;;;;;;;11.32;100.00;100221.00;5053262;28;20499;-85
2021/08/27 01:39:23;;;;;;;7.85;1.73;;;;;;;11.34;100.00;100227.00;5053619;28;20025;-84
2021/08/27 01:41:51;;;;;;;7.28;1.63;;;;;;;11.33;100.00;100227.91;5053969;28;20506;-85
2021/08/27 01:44:18;;;;;;;7.30;1.70;;;;;;;11.34;100.00;100232.19;5053066;28;20064;-85
2021/08/27 01:46:45;;;;;;;7.65;1.42;;;;;;;11.36;100.00;100230.44;5053096;28;20020;-85
2021/08/27 01:49:12;;;;;;;7.68;1.50;;;;;;;11.34;100.00;100233.94;5053096;28;20025;-85
2021/08/27 01:51:39;;;;;;;7.70;2.00;;;;;;;11.34;100.00;100228.75;5053070;28;20024;-85
2021/08/27 01:54:05;;;;;;;4.22;1.30;;;;;;;11.34;100.00;100233.94;5053018;28;20033;-85
2021/08/27 01:56:33;;;;;;;7.18;1.75;;;;;;;11.32;100.00;100233.97;5053128;28;20455;-85
2021/08/27 01:59:01;;;;;;;5.47;1.90;;;;;;;11.33;100.00;100233.09;5054266;28;20025;-85
2021/08/27 02:01:28;;;;;;;4.60;1.20;;;;;;;11.34;100.00;100234.78;5053096;28;20029;-85
2021/08/27 02:03:54;;;;;;;8.63;1.52;;;;;;;11.34;100.00;100224.41;5052866;28;20035;-85
2021/08/27 02:06:22;;;;;;;10.18;2.10;;;;;;;11.31;100.00;100228.84;5054397;28;20385;-84
2021/08/27 02:08:48;;;;;;;6.68;1.70;;;;;;;11.32;100.00;100226.19;5052999;28;20044;-85
2021/08/27 02:11:14;;;;;;;5.95;1.65;;;;;;;11.31;100.00;100227.09;5053992;28;20025;-85
2021/08/27 02:13:39;;;;;;;4.10;1.42;;;;;;;11.30;100.00;100225.41;5053180;28;20120;-85
2021/08/27 02:16:06;;;;;;;6.80;1.90;;;;;;;11.28;100.00;100225.41;5053741;28;20025;-85
2021/08/27 02:18:33;;;;;;;4.93;1.80;;;;;;;11.28;100.00;100222.81;5052593;28;20388;-85
2021/08/27 02:21:00;;;;;;;4.95;1.70;;;;;;;11.27;100.00;100220.28;5052450;28;20101;-85
2021/08/27 02:23:27;;;;;;;8.30;1.67;;;;;;;11.29;100.00;100224.50;5052556;28;20025;-85
2021/08/27 02:25:54;;;;;;;5.45;1.60;;;;;;;11.28;100.00;100225.41;5052253;28;20025;-85
2021/08/27 02:28:22;;;;;;;7.05;1.40;;;;;;;11.30;100.00;100235.78;5052375;28;20033;-85
2021/08/27 02:30:48;;;;;;;7.15;1.48;;;;;;;11.33;100.00;100233.09;5052553;28;20032;-85
2021/08/27 02:33:14;;;;;;;6.22;1.42;;;;;;;11.33;100.00;100227.03;5052647;28;20032;-85
2021/08/27 02:35:41;;;;;;;5.28;1.88;;;;;;;11.34;100.00;100234.78;5052495;28;20021;-85
2021/08/27 02:38:12;;;;;;;6.90;1.92;;;;;;;11.36;100.00;100233.03;5052456;28;20036;-85
2021/08/27 02:40:37;;;;;;;6.53;1.50;;;;;;;11.36;100.00;100227.81;5052188;28;20021;-85
2021/08/27 02:43:03;;;;;;;6.32;1.67;;;;;;;11.38;100.00;100223.44;5053498;28;20028;-85
2021/08/27 02:45:28;;;;;;;6.22;1.58;;;;;;;11.37;100.00;100219.13;5052169;28;20468;-85
2021/08/27 02:47:54;;;;;;;12.05;2.35;;;;;;;11.43;100.00;100221.56;5052122;28;20115;-85
2021/08/27 02:50:19;;;;;;;4.72;1.40;;;;;;;11.45;100.00;100217.19;5052005;28;20025;-85
2021/08/27 02:52:52;;;;;;;9.43;1.60;;;;;;;11.50;100.00;100222.25;5053239;28;20032;-85
2021/08/27 02:55:21;;;;;;;5.10;1.48;;;;;;;11.48;100.00;100216.22;5052179;28;20021;-85
2021/08/27 02:58:05;;;;;;;8.80;1.55;;;;;;;11.51;100.00;100224.81;5052071;28;20028;-85
2021/08/27 03:00:36;;;;;;;4.43;1.25;;;;;;;11.54;100.00;100216.06;5053274;28;20128;-85
2021/08/27 03:03:04;;;;;;;6.47;1.80;;;;;;;11.57;100.00;100215.13;5053357;28;20078;-85
2021/08/27 03:05:43;;;;;;;7.35;2.05;;;;;;;11.56;100.00;100214.28;5052990;28;20020;-85
2021/08/27 03:08:15;;;;;;;5.38;1.38;;;;;;;11.58;100.00;100215.09;5052020;28;20480;-85
2021/08/27 03:10:50;;;;;;;5.55;1.63;;;;;;;11.58;100.00;100206.47;5052013;28;20052;-85
2021/08/27 03:13:26;;;;;;;6.43;1.70;;;;;;;11.62;100.00;100208.06;5052229;28;20387;-85
2021/08/27 03:16:04;;;;;;;6.93;1.70;;;;;;;11.62;100.00;100202.88;5051961;28;20013;-85
2021/08/27 03:18:37;;;;;;;7.18;1.58;;;;;;;11.63;100.00;100205.41;5052781;28;20411;-85
2021/08/27 03:21:11;;;;;;;5.50;1.60;;;;;;;11.67;100.00;100201.84;5051662;28;20060;-85
2021/08/27 03:23:38;;;;;;;6.30;1.48;;;;;;;11.66;100.00;100189.75;5051976;28;20026;-85
2021/08/27 03:26:08;;;;;;;5.13;1.58;;;;;;;11.67;100.00;100191.47;5051732;28;20028;-85
2021/08/27 03:28:39;;;;;;;7.50;1.65;;;;;;;11.69;100.00;100189.66;5053007;28;20032;-85
2021/08/27 03:31:07;;;;;;;8.40;1.48;;;;;;;11.73;100.00;100185.25;5051771;28;20083;-85
2021/08/27 03:33:33;;;;;;;6.25;1.38;;;;;;;11.72;100.00;100175.72;5051789;28;20031;-85
2021/08/27 03:36:00;;;;;;;11.32;1.75;;;;;;;11.72;100.00;100178.31;5053176;28;20388;-85
2021/08/27 03:38:28;;;;;;;6.28;1.60;;;;;;;11.75;100.00;100178.25;5054514;28;20056;-85
2021/08/27 03:40:55;;;;;;;5.75;1.38;;;;;;;11.75;100.00;100178.25;5055372;28;20150;-85
2021/08/27 03:43:22;;;;;;;6.50;1.63;;;;;;;11.77;100.00;100168.66;5056570;28;20025;-85
2021/08/27 03:45:49;;;;;;;8.30;1.90;;;;;;;11.74;100.00;100169.59;5055300;28;20484;-85
2021/08/27 03:48:16;;;;;;;7.88;1.77;;;;;;;11.78;100.00;100175.56;5056532;28;20052;-85
2021/08/27 03:50:41;;;;;;;8.15;1.92;;;;;;;11.79;100.00;100171.19;5055244;28;20080;-85
2021/08/27 03:53:09;;;;;;;6.40;1.58;;;;;;;11.77;100.00;100166.06;5056548;28;20504;-85
2021/08/27 03:55:35;;;;;;;7.28;1.60;;;;;;;11.72;100.00;100173.97;5056528;28;20017;-85
2021/08/27 03:58:02;;;;;;;6.75;1.77;;;;;;;11.71;100.00;100169.69;5055138;28;20028;-85
2021/08/27 04:00:27;;;;;;;7.07;1.90;;;;;;;11.74;100.00;100169.59;5055029;28;20472;-85
2021/08/27 04:02:53;;;;;;;8.30;1.77;;;;;;;11.70;100.00;100168.00;5057659;28;20036;-84
2021/08/27 04:05:21;;;;;;;8.60;1.52;;;;;;;11.68;100.00;100166.34;5056790;28;20025;-84
2021/08/27 04:07:47;;;;;;;6.38;1.45;;;;;;;11.65;100.00;100171.63;5060873;28;20079;-84
2021/08/27 04:10:17;;;;;;;6.82;1.58;;;;;;;11.62;100.00;100156.97;5058921;28;20021;-84
2021/08/27 04:12:42;;;;;;;8.63;1.88;;;;;;;11.63;100.00;100170.81;5060989;28;20104;-84
2021/08/27 04:15:10;;;;;;;6.90;1.92;;;;;;;11.60;100.00;100176.94;5060533;28;20028;-83
2021/08/27 04:17:36;;;;;;;6.25;1.70;;;;;;;11.60;100.00;100173.47;5061059;28;20314;-83
2021/08/27 04:20:02;;;;;;;7.38;1.83;;;;;;;11.59;100.00;100172.63;5060598;28;20024;-83
2021/08/27 04:22:27;;;;;;;6.85;1.80;;;;;;;11.57;100.00;100161.44;5060818;28;20021;-83
2021/08/27 04:24:52;;;;;;;5.32;1.27;;;;;;;11.57;100.00;100168.38;5062367;28;20024;-83
2021/08/27 04:27:18;;;;;;;6.72;1.77;;;;;;;11.59;100.00;100162.25;5060105;28;20124;-83
2021/08/27 04:29:43;;;;;;;9.73;1.77;;;;;;;11.57;100.00;100152.78;5059861;28;20155;-84
2021/08/27 04:32:09;;;;;;;4.75;1.50;;;;;;;11.60;100.00;100152.72;5059159;28;20021;-84
2021/08/27 04:34:35;;;;;;;5.85;1.80;;;;;;;11.59;100.00;100151.84;5059876;28;20036;-83
2021/08/27 04:37:00;;;;;;;10.38;2.22;;;;;;;11.61;100.00;100147.47;5059099;28;20090;-83
2021/08/27 04:39:26;;;;;;;8.93;1.80;;;;;;;11.63;100.00;100156.06;5059287;28;20155;-83
2021/08/27 04:41:51;;;;;;;9.55;1.58;;;;;;;11.66;100.00;100148.19;5059896;28;20389;-83
2021/08/27 04:44:16;;;;;;;9.32;1.65;;;;;;;11.67;100.00;100149.06;5061411;28;20025;-83
2021/08/27 04:46:42;;;;;;;6.70;1.77;;;;;;;11.70;100.00;100151.56;5058681;28;20524;-84
2021/08/27 04:49:07;;;;;;;7.07;1.50;;;;;;;11.68;100.00;100150.75;5059618;28;20029;-84
2021/08/27 04:51:32;;;;;;;6.30;1.40;;;;;;;11.69;100.00;100148.09;5059719;28;20024;-84
2021/08/27 04:53:58;;;;;;;3.92;1.38;;;;;;;11.73;100.00;100143.69;5059522;28;20029;-83
2021/08/27 04:56:23;;;;;;;8.32;2.17;;;;;;;11.73;100.00;100152.31;5061338;28;20460;-84
2021/08/27 04:58:48;;;;;;;5.72;1.33;;;;;;;11.69;100.00;100147.25;5060769;28;20024;-83
2021/08/27 05:01:14;;;;;;;4.47;1.33;;;;;;;11.69;100.00;100145.50;5063336;28;20041;-83
2021/08/27 05:03:39;;;;;;;6.28;2.20;;;;;;;11.68;100.00;100158.53;5061999;28;20020;-83
2021/08/27 05:06:05;;;;;;;5.15;1.38;;;;;;;11.67;100.00;100152.50;5060998;28;20500;-83
2021/08/27 05:08:30;;;;;;;7.20;1.75;;;;;;;11.66;100.00;100155.13;5060744;28;20031;-83
2021/08/27 05:10:56;;;;;;;8.27;1.73;;;;;;;11.62;100.00;100156.97;5060057;28;20036;-84
2021/08/27 05:13:21;;;;;;;7.25;1.88;;;;;;;11.55;100.00;100155.44;5061598;28;20389;-83
2021/08/27 05:15:46;;;;;;;7.85;1.42;;;;;;;11.59;100.00;100156.22;5062618;28;20013;-83
2021/08/27 05:18:12;;;;;;;7.88;1.65;;;;;;;11.55;100.00;100149.41;5062359;28;20392;-83
2021/08/27 05:20:37;;;;;;;8.18;1.75;;;;;;;11.58;100.00;100165.75;5062341;28;20017;-83
2021/08/27 05:23:02;;;;;;;6.35;1.75;;;;;;;11.60;100.00;100156.16;5061385;28;20025;-83
2021/08/27 05:25:28;;;;;;;7.93;1.80;;;;;;;11.64;100.00;100162.97;5058560;28;20017;-83
2021/08/27 05:27:53;;;;;;;8.63;1.83;;;;;;;11.59;100.00;100164.84;5057740;28;20064;-84
2021/08/27 05:30:19;;;;;;;9.25;1.80;;;;;;;11.64;100.00;100162.13;5057485;28;20120;-83
2021/08/27 05:32:45;;;;;;;5.32;1.33;;;;;;;11.68;100.00;100161.97;5058618;28;20108;-84
2021/08/27 05:35:11;;;;;;;9.65;1.65;;;;;;;11.73;100.00;100159.28;5057675;28;20469;-84
2021/08/27 05:37:37;;;;;;;8.32;1.40;;;;;;;11.71;100.00;100156.69;5058819;28;20031;-84
2021/08/27 05:40:05;;;;;;;7.05;1.65;;;;;;;11.74;100.00;100160.97;5059123;28;20021;-84
2021/08/27 05:42:30;;;;;;;9.77;1.95;;;;;;;11.79;100.00;100163.41;5056009;28;20013;-85
2021/08/27 05:44:55;;;;;;;7.75;1.60;;;;;;;11.79;100.00;100163.41;5056955;28;20424;-84
2021/08/27 05:47:21;;;;;;;8.45;1.92;;;;;;;11.79;100.00;100163.41;5056052;28;20037;-84
2021/08/27 05:49:46;;;;;;;8.30;1.85;;;;;;;11.81;100.00;100170.25;5057546;28;20098;-84
2021/08/27 05:52:11;;;;;;;5.45;1.23;;;;;;;11.87;100.00;100166.66;5056695;28;20036;-84
2021/08/27 05:54:36;;;;;;;7.90;1.60;;;;;;;11.83;100.00;100165.88;5056610;28;20519;-84
2021/08/27 05:57:02;;;;;;;5.60;1.70;;;;;;;11.84;100.00;100174.53;5057216;28;20032;-84
2021/08/27 05:59:27;;;;;;;8.85;1.73;;;;;;;11.89;100.00;100173.53;5056944;28;20059;-84
2021/08/27 06:01:52;;;;;;;7.93;2.20;;;;;;;11.89;100.00;100175.28;5054736;28;20040;-84
2021/08/27 06:04:17;;;;;;;6.45;1.30;;;;;;;11.88;100.00;100169.22;5056343;28;20163;-84
2021/08/27 06:06:43;;;;;;;4.88;1.30;;;;;;;11.94;100.00;100170.78;5055256;28;20028;-84
2021/08/27 06:09:08;;;;;;;4.35;1.25;;;;;;;11.93;100.00;100169.09;5055259;28;20400;-84
2021/08/27 06:11:38;;;;;;;9.27;1.88;;;;;;;11.94;100.00;100181.16;5056125;28;20028;-84
2021/08/27 06:14:06;;;;;;;7.57;1.60;;;;;;;11.95;100.00;100175.09;5054143;28;20032;-84
2021/08/27 06:16:32;;;;;;;10.95;1.58;;;;;;;11.95;100.00;100181.16;5054458;28;20484;-84
2021/08/27 06:19:03;;;;;;;8.05;1.85;;;;;;;11.94;100.00;100178.56;5055365;28;20036;-84
2021/08/27 06:21:29;;;;;;;5.35;1.52;;;;;;;11.97;100.00;100179.31;5053642;28;20029;-85
2021/08/27 06:23:54;;;;;;;7.43;1.70;;;;;;;11.99;100.00;100176.69;5052893;28;20024;-85
2021/08/27 06:26:20;;;;;;;8.98;1.70;;;;;;;11.99;100.00;100176.69;5055739;28;20108;-84
2021/08/27 06:28:45;;;;;;;7.00;1.35;;;;;;;12.06;100.00;100174.75;5053703;28;20392;-85
2021/08/27 06:31:11;;;;;;;8.30;1.90;;;;;;;12.04;100.00;100168.75;5054535;28;20063;-85
2021/08/27 06:33:36;;;;;;;6.95;1.45;;;;;;;12.06;100.00;100170.41;5053417;28;20025;-84
2021/08/27 06:36:01;;;;;;;6.63;1.58;;;;;;;12.05;100.00;100176.50;5053105;28;20028;-84
2021/08/27 06:38:27;;;;;;;5.68;1.40;;;;;;;12.07;100.00;100182.53;5054659;28;20396;-84
2021/08/27 06:40:56;;;;;;;7.40;1.42;;;;;;;12.15;100.00;100177.94;5057340;28;20045;-84
2021/08/27 06:43:25;;;;;;;6.88;1.50;;;;;;;12.14;100.00;100184.03;5057865;28;20481;-84
2021/08/27 06:45:51;;;;;;;6.78;1.70;;;;;;;12.17;100.00;100177.88;5056449;28;20396;-83
2021/08/27 06:48:16;;;;;;;7.18;1.55;;;;;;;12.11;100.00;100189.31;5057383;28;20039;-83
2021/08/27 06:50:41;;;;;;;7.95;1.67;;;;;;;12.10;100.00;100179.84;5057627;28;20031;-84
2021/08/27 06:53:07;;;;;;;5.45;1.17;;;;;;;12.12;100.00;100191.03;5056651;28;20435;-84
2021/08/27 06:55:33;;;;;;;7.10;1.45;;;;;;;12.22;100.00;100186.38;5057885;28;20055;-84
2021/08/27 06:57:59;;;;;;;4.93;1.38;;;;;;;12.28;100.00;100195.75;5058620;28;20075;-85
2021/08/27 07:00:26;;;;;;;5.15;1.25;;;;;;;12.36;100.00;100196.38;5053697;28;20033;-85
2021/08/27 07:02:52;;;;;;;6.13;1.23;;;;;;;12.42;100.00;100198.78;5078588;22;20044;-82
2021/08/27 07:05:17;;;;;;;4.50;1.17;;;;;;;12.54;100.00;100190.59;5056772;28;20025;-82
2021/08/27 07:07:43;;;;;;;5.93;1.10;;;;;;;12.65;100.00;100200.63;5058740;28;20051;-83
2021/08/27 07:10:09;;;;;;;4.68;1.10;;;;;;;12.74;100.00;100199.47;5056959;28;20093;-83
2021/08/27 07:12:34;;;;;;;4.53;1.02;;;;;;;12.75;100.00;100203.81;5056521;28;20033;-82
2021/08/27 07:14:59;;;;;;;4.03;1.00;;;;;;;12.92;100.00;100198.88;5060075;28;20017;-82
2021/08/27 07:17:24;;;;;;;8.30;1.50;;;;;;;12.83;100.00;100202.63;5060944;28;20480;-82
2021/08/27 07:19:50;;;;;;;3.35;0.95;;;;;;;12.75;100.00;100203.81;5062451;28;20032;-82
2021/08/27 07:22:16;;;;;;;3.72;1.30;;;;;;;12.78;100.00;100204.56;5060855;28;20017;-83
2021/08/27 07:24:42;;;;;;;7.00;1.48;;;;;;;12.80;100.00;100201.88;5062086;28;20033;-82
2021/08/27 07:27:09;;;;;;;4.82;1.02;;;;;;;12.95;100.00;100213.53;5062311;28;20036;-83
2021/08/27 07:29:35;;;;;;;5.05;1.13;;;;;;;12.94;100.00;100204.88;5061434;28;20032;-82
2021/08/27 07:32:01;;;;;;;6.50;1.65;;;;;;;13.03;100.00;100207.19;5061270;28;20025;-82
2021/08/27 07:34:26;;;;;;;3.42;1.10;;;;;;;13.12;100.00;100208.63;5062573;28;20468;-82
2021/08/27 07:36:51;;;;;;;5.65;1.25;;;;;;;13.06;100.00;100201.03;5062232;28;20070;-82
2021/08/27 07:39:17;;;;;;;5.15;1.25;;;;;;;12.89;100.00;100212.00;5062863;28;20029;-82
2021/08/27 07:41:42;;;;;;;7.25;1.40;;;;;;;12.97;100.00;100210.00;5061248;28;20021;-82
2021/08/27 07:44:07;;;;;;;4.68;1.17;;;;;;;12.99;100.00;100215.13;5063004;28;20043;-82
2021/08/27 07:46:33;;;;;;;5.32;1.10;;;;;;;13.00;100.00;100215.09;5063024;28;20031;-82
2021/08/27 07:48:58;;;;;;;6.90;1.90;;;;;;;12.99;100.00;100210.81;5061451;28;20025;-83
2021/08/27 07:51:23;;;;;;;6.40;1.23;;;;;;;13.01;100.00;100214.19;5062200;28;20037;-83
2021/08/27 07:53:48;;;;;;;4.63;1.10;;;;;;;12.95;100.00;100209.19;5059756;28;20040;-83
2021/08/27 07:56:14;;;;;;;4.95;1.60;;;;;;;12.90;100.00;100214.56;5060310;28;20032;-83
2021/08/27 07:58:39;;;;;;;8.40;1.58;;;;;;;12.95;100.00;100217.00;5058304;28;20071;-84
2021/08/27 08:01:04;;;;;;;5.22;1.23;;;;;;;12.94;100.00;100214.44;5056801;28;20029;-85
2021/08/27 08:03:29;;;;;;;3.97;1.30;;;;;;;12.90;100.00;100219.75;5056653;28;20021;-84
2021/08/27 08:05:55;;;;;;;4.97;1.30;;;;;;;12.95;100.00;100222.19;5055836;28;20033;-84
2021/08/27 08:08:20;;;;;;;5.88;1.30;;;;;;;12.89;100.00;100220.63;5056053;28;20396;-83
2021/08/27 08:10:45;;;;;;;4.25;1.10;;;;;;;12.93;100.00;100225.75;5057039;28;20029;-84
2021/08/27 08:13:11;;;;;;;6.03;1.50;;;;;;;12.93;100.00;100228.34;5056486;28;20021;-83
2021/08/27 08:15:36;;;;;;;5.32;1.58;;;;;;;12.98;100.00;100232.50;5055719;28;20052;-83
2021/08/27 08:18:02;;;;;;;3.95;1.20;;;;;;;13.12;100.00;100245.06;5057515;28;20044;-83
2021/08/27 08:20:28;;;;;;;3.28;0.98;;;;;;;13.19;100.00;100245.72;5057725;28;20028;-83
2021/08/27 08:22:53;;;;;;;2.28;0.90;;;;;;;13.19;100.00;100243.13;5057560;28;20025;-83
2021/08/27 08:25:19;;;;;;;4.35;1.10;;;;;;;13.35;100.00;100246.91;5056765;28;20029;-83
2021/08/27 08:27:44;;;;;;;3.22;1.00;;;;;;;13.39;100.00;100242.44;5057208;28;20017;-83
2021/08/27 08:30:10;;;;;;;5.00;0.93;;;;;;;13.32;100.00;100253.06;5057140;28;20025;-83
2021/08/27 08:32:35;;;;;;;2.63;0.80;;;;;;;13.48;100.00;100258.59;5057205;28;20021;-83
2021/08/27 08:35:03;;;;;;;3.05;0.88;;;;;;;13.61;100.00;100247.75;5056415;28;20036;-83
2021/08/27 08:37:29;;;;;;;3.05;1.00;;;;;;;13.69;100.00;100254.38;5055427;28;20404;-83
2021/08/27 08:39:54;;;;;;;4.60;1.00;;;;;;;13.81;100.00;100258.31;5057085;28;20025;-83
2021/08/27 08:42:22;;;;;;;3.78;1.05;;;;;;;13.96;100.00;100257.75;5057072;28;20086;-83
2021/08/27 08:44:48;;;;;;;2.97;0.98;;;;;;;13.83;100.00;100266.94;5057653;28;20373;-83
2021/08/27 08:47:16;;;;;;;3.13;0.88;;;;;;;14.08;100.00;100260.81;5056406;28;20024;-83
2021/08/27 08:49:44;;;;;;;2.42;0.80;;;;;;;14.14;100.00;100261.44;5056486;28;20025;-83
2021/08/27 08:52:09;;;;;;;4.50;1.10;;;;;;;14.11;100.00;100265.91;5056470;28;20032;-83
2021/08/27 08:54:37;;;;;;;5.07;1.00;;;;;;;14.03;100.00;100267.03;5056601;28;20444;-83
2021/08/27 08:57:03;;;;;;;4.55;1.42;;;;;;;14.11;100.00;100269.38;5057008;28;20066;-83
2021/08/27 08:59:32;;;;;;;2.95;0.90;;;;;;;14.17;100.00;100270.91;5058588;28;20029;-83
2021/08/27 09:02:00;;;;;;;2.88;0.95;;;;;;;14.45;100.00;100257.66;5060509;28;20476;-83
2021/08/27 09:04:27;;;;;;;2.35;0.75;;;;;;;14.35;100.00;100256.31;5059112;28;20029;-83
2021/08/27 09:06:52;;;;;;;3.92;1.23;;;;;;;14.31;100.00;100258.16;5055670;28;20127;-83
2021/08/27 09:09:33;;;;;;;4.53;1.27;;;;;;;14.42;100.00;100258.63;5055971;28;20551;-83
2021/08/27 09:11:58;;;;;;;4.10;1.08;;;;;;;14.90;100.00;100260.22;5056053;28;20132;-83
2021/08/27 09:14:29;;;;;;;3.97;1.15;;;;;;;15.00;100.00;100255.47;5056126;28;20135;-83
2021/08/27 09:17:03;;;;;;;4.35;0.90;;;;;;;16.08;100.00;100264.75;5055487;28;20028;-83
2021/08/27 09:19:48;;;;;;;4.07;0.90;;;;;;;16.65;100.00;100262.06;5055846;28;20028;-83
2021/08/27 09:22:14;;;;;;;3.17;0.73;;;;;;;16.24;100.00;100263.13;5054632;28;20044;-83
2021/08/27 09:24:39;;;;;;;4.70;0.82;;;;;;;15.95;100.00;100260.97;5055244;28;20029;-83
2021/08/27 09:27:06;;;;;;;3.97;0.98;;;;;;;15.76;100.00;100266.19;5055343;28;20392;-83
2021/08/27 09:29:34;;;;;;;3.85;1.17;;;;;;;15.42;100.00;100265.00;5059654;28;20366;-83
2021/08/27 09:32:01;;;;;;;1.88;0.70;;;;;;;15.48;100.00;100276.97;5056101;28;20031;-83
2021/08/27 09:34:28;;;;;;;5.65;1.23;;;;;;;15.39;100.00;100263.41;5055361;28;20029;-83
2021/08/27 09:36:58;;;;;;;4.20;0.90;;;;;;;15.44;100.00;100271.03;5056190;28;20059;-83
2021/08/27 09:39:32;;;;;;;3.15;1.02;;;;;;;15.39;100.00;100276.47;5057872;28;20021;-83
2021/08/27 09:41:57;;;;;;;3.67;1.20;;;;;;;15.51;100.00;100274.22;5057746;28;20033;-83
2021/08/27 09:44:23;;;;;;;4.47;1.10;;;;;;;15.57;100.00;100266.13;5058190;28;20031;-83
2021/08/27 09:46:48;;;;;;;3.55;1.10;;;;;;;15.23;100.00;100269.31;5058134;28;20032;-83
2021/08/27 09:49:26;;;;;;;1.80;0.75;;;;;;;15.13;100.00;100272.31;5056501;28;20025;-83
2021/08/27 09:51:51;;;;;;;7.82;1.30;;;;;;;15.15;100.00;100275.72;5058623;28;20032;-83
2021/08/27 09:54:36;;;;;;;17.73;8.95;;;;;;;15.67;100.00;100272.69;5059833;28;20028;-83
2021/08/27 09:57:04;;;;;;;7.40;2.25;;;;;;;15.90;100.00;100273.44;5057517;28;20024;-82
2021/08/27 09:59:38;;;;;;;7.10;3.17;;;;;;;16.46;100.00;100277.81;5058895;28;20037;-82
2021/08/27 10:02:09;;;;;;;3.40;1.20;;;;;;;16.45;100.00;100283.97;5059857;28;20032;-83
2021/08/27 10:04:35;;;;;;;4.72;1.60;;;;;;;16.87;100.00;100285.47;5058907;28;20083;-83
2021/08/27 10:07:01;;;;;;;2.35;0.85;;;;;;;16.45;100.00;100291.84;5058871;28;20021;-82
2021/08/27 10:09:46;;;;;;;2.92;1.00;;;;;;;16.87;100.00;100293.34;5058426;28;20029;-82
2021/08/27 10:12:13;;;;;;;2.67;0.73;;;;;;;17.25;100.00;100294.94;5056231;28;20032;-83
2021/08/27 10:14:38;;;;;;;2.88;0.60;;;;;;;17.29;100.00;100293.00;5057342;28;20033;-83
2021/08/27 10:17:04;;;;;;;3.67;1.02;;;;;;;16.66;100.00;100288.22;5057128;28;20043;-82
2021/08/27 10:19:31;;;;;;;3.30;0.75;;;;;;;17.54;100.00;100289.13;5057562;28;20035;-83
2021/08/27 10:21:57;;;;;;;4.03;0.98;;;;;;;17.64;100.00;100283.34;5057430;28;20036;-83
2021/08/27 10:24:23;;;;;;;3.08;0.80;;;;;;;19.01;100.00;100276.75;5057470;28;20158;-83
2021/08/27 10:26:48;;;;;;;2.78;0.90;;;;;;;18.49;100.00;100271.81;5057083;28;20044;-83
2021/08/27 10:29:13;;;;;;;3.70;1.00;;;;;;;17.54;100.00;100281.28;5057058;28;20029;-83
2021/08/27 10:31:54;;;;;;;4.10;0.90;;;;;;;16.70;100.00;100276.66;5055807;28;20036;-83
2021/08/27 10:34:41;;;;;;;3.05;1.08;;;;;;;15.82;100.00;100265.91;5056968;28;20029;-83
2021/08/27 10:37:07;;;;;;;3.33;1.13;;;;;;;15.56;100.00;100264.44;5055586;28;20041;-83
2021/08/27 10:39:45;;;;;;;2.97;0.93;;;;;;;15.29;100.00;100262.06;5057441;28;20025;-83
2021/08/27 10:42:46;;;;;;;7.57;2.00;;;;;;;15.21;100.00;100282.47;5058647;28;20024;-83
2021/08/27 10:45:12;;;;;;;9.07;1.85;;;;;;;14.84;100.00;100283.97;5057133;28;20025;-83
2021/08/27 10:48:09;;;;;;;8.85;2.05;;;;;;;14.19;100.00;100287.31;5054355;28;20481;-84
2021/08/27 10:50:35;;;;;;;5.72;1.20;;;;;;;14.05;100.00;100285.25;5055062;28;20029;-85
2021/08/27 10:53:23;;;;;;;5.60;1.50;;;;;;;14.08;100.00;100281.69;5052951;28;20396;-85
2021/08/27 10:55:49;;;;;;;5.43;1.10;;;;;;;14.35;100.00;100290.25;5054069;28;20074;-85
2021/08/27 10:58:17;;;;;;;2.53;0.90;;;;;;;15.91;100.00;100283.81;5052888;28;20607;-84
2021/08/27 11:00:49;;;;;;;3.33;0.80;;;;;;;15.99;100.00;100296.56;5053370;28;20029;-83
2021/08/27 11:03:15;;;;;;;3.65;1.08;;;;;;;16.89;100.00;100296.75;5051984;28;20048;-83
2021/08/27 11:05:46;;;;;;;4.88;0.90;;;;;;;17.46;100.00;100303.50;5052061;28;20056;-84
2021/08/27 11:08:16;;;;;;;2.85;1.10;;;;;;;16.59;100.00;100299.88;5052012;28;20071;-84
2021/08/27 11:10:44;;;;;;;4.55;1.10;;;;;;;16.40;100.00;100304.28;5052309;28;20024;-84
2021/08/27 11:13:11;;;;;;;3.10;0.93;;;;;;;16.53;100.00;100290.56;5053702;28;20036;-84
2021/08/27 11:15:37;;;;;;;3.78;0.98;;;;;;;16.78;100.00;100297.28;5054640;28;20108;-83
2021/08/27 11:18:07;;;;;;;2.72;0.80;;;;;;;18.20;100.00;100304.91;5054794;28;20055;-84
2021/08/27 11:20:32;;;;;;;2.75;0.80;;;;;;;19.71;100.00;100294.63;5051907;28;20391;-84